Time;durP1;ratioP1;P1;durP2;ratioP2;P2;SDS_P1;SDS_P2;PMS_P1;PMS_P2;Temp;Humidity;BMP_temperature;BMP_pressure;BME280_temperature;BME280_humidity;BME280_pressure;Samples;Min_cycle;Max_cycle;Signal;HPM_P1;HPM_P2
2022/06/16 00:00:48;;;;;;;9.07;3.10;;;;;;;16.37;62.32;101810.34;5053973;28;20052;-49
2022/06/16 00:03:16;;;;;;;7.00;2.78;;;;;;;16.37;61.88;101813.00;5054055;28;20530;-58
2022/06/16 00:05:45;;;;;;;5.47;2.80;;;;;;;16.25;62.62;101810.41;5054381;28;20053;-51
2022/06/16 00:08:16;;;;;;;11.70;3.28;;;;;;;16.18;62.85;101812.66;5053869;28;20041;-51
2022/06/16 00:11:16;;;;;;;6.00;3.00;;;;;;;16.23;62.42;101821.97;5054132;28;20049;-57
2022/06/16 00:13:35;;;;;;;7.03;3.17;;;;;;;16.13;63.10;101822.75;5052722;28;20079;-53
2022/06/16 00:16:03;;;;;;;7.88;3.50;;;;;;;16.23;63.18;101818.47;5050488;28;20041;-51
2022/06/16 00:18:33;;;;;;;7.70;3.10;;;;;;;16.30;62.70;101824.19;5053018;28;20045;-56
2022/06/16 00:21:01;;;;;;;6.80;3.05;;;;;;;16.09;63.73;101816.84;5054598;28;20098;-55
2022/06/16 00:23:30;;;;;;;6.13;3.10;;;;;;;16.10;63.71;101817.69;5053914;28;20045;-51
2022/06/16 00:26:05;;;;;;;6.03;3.15;;;;;;;16.10;63.65;101815.03;5053552;28;20116;-48
2022/06/16 00:28:33;;;;;;;6.88;2.83;;;;;;;16.20;63.32;101816.06;5050216;28;20049;-49
2022/06/16 00:31:03;;;;;;;7.43;3.17;;;;;;;16.20;63.60;101810.75;5048907;28;20045;-49
2022/06/16 00:33:32;;;;;;;8.13;3.53;;;;;;;16.04;63.67;101811.03;5052125;28;20091;-49
2022/06/16 00:36:00;;;;;;;8.55;3.45;;;;;;;15.94;64.16;101817.94;5053245;28;20052;-51
2022/06/16 00:38:30;;;;;;;5.40;2.75;;;;;;;15.91;64.37;101818.19;5051883;28;20509;-50
2022/06/16 00:40:58;;;;;;;8.10;3.28;;;;;;;15.91;64.23;101816.38;5049699;28;20123;-57
2022/06/16 00:43:27;;;;;;;6.10;3.08;;;;;;;15.85;64.66;101822.97;5051108;28;20488;-57
2022/06/16 00:46:00;;;;;;;8.65;3.40;;;;;;;15.89;65.22;101821.78;5053102;28;20059;-49
2022/06/16 00:48:32;;;;;;;7.10;3.30;;;;;;;15.89;65.28;101827.09;5052989;28;20076;-54
2022/06/16 00:51:06;;;;;;;9.18;3.20;;;;;;;15.87;65.57;101825.53;5053158;28;20049;-56
2022/06/16 00:53:38;;;;;;;7.30;3.60;;;;;;;15.84;65.31;101825.72;5050938;28;20132;-52
2022/06/16 00:56:09;;;;;;;9.27;3.17;;;;;;;15.66;65.34;101818.09;5049582;28;20040;-56
2022/06/16 00:58:40;;;;;;;8.15;3.03;;;;;;;15.61;65.65;101828.22;5051565;28;20512;-57
2022/06/16 01:01:09;;;;;;;9.95;3.30;;;;;;;15.55;66.11;101831.28;5052610;28;20045;-56
2022/06/16 01:06:26;;;;;;;6.35;3.00;;;;;;;15.52;65.71;101827.03;5050809;28;20495;-57
2022/06/16 01:08:59;;;;;;;6.75;3.22;;;;;;;15.48;65.82;101827.38;5049655;28;20476;-57
2022/06/16 01:14:39;;;;;;;7.78;3.45;;;;;;;15.41;65.96;101839.38;5053247;28;20048;-59
2022/06/16 01:17:17;;;;;;;7.43;3.22;;;;;;;15.34;65.96;101833.66;5053090;28;20052;-50
2022/06/16 01:20:01;;;;;;;7.03;3.38;;;;;;;15.18;67.19;101828.56;5053203;28;20615;-49
2022/06/16 01:22:44;;;;;;;6.50;3.22;;;;;;;15.27;67.02;101835.00;5052978;28;20072;-51
2022/06/16 01:25:24;;;;;;;7.28;3.50;;;;;;;15.25;66.95;101845.72;5052967;28;20041;-47
2022/06/16 01:28:10;;;;;;;6.60;3.25;;;;;;;15.23;67.45;101845.00;5053042;28;20056;-57
2022/06/16 01:30:46;;;;;;;7.38;3.22;;;;;;;15.34;67.17;101836.28;5046684;28;20052;-51
2022/06/16 01:33:24;;;;;;;5.80;3.22;;;;;;;15.20;67.61;101846.03;5050797;28;20579;-57
2022/06/16 01:36:01;;;;;;;6.90;3.00;;;;;;;15.19;67.14;101840.84;5050171;28;20048;-54
2022/06/16 01:38:37;;;;;;;6.85;3.00;;;;;;;15.17;67.52;101848.91;5048761;28;20056;-49
2022/06/16 01:41:15;;;;;;;8.10;3.55;;;;;;;15.22;67.57;101853.88;5052643;28;20143;-58
2022/06/16 01:43:48;;;;;;;7.30;3.10;;;;;;;15.23;67.42;101860.88;5052415;28;20392;-50
2022/06/16 01:46:23;;;;;;;7.68;3.47;;;;;;;15.05;68.60;101849.72;5052025;28;20090;-49
2022/06/16 01:48:56;;;;;;;8.32;3.10;;;;;;;15.02;69.25;101853.47;5051297;28;20053;-50
2022/06/16 01:51:29;;;;;;;;;;;;;;;15.00;69.06;101852.69;5052687;28;20044;-51
2022/06/16 01:54:01;;;;;;;8.35;3.22;;;;;;;14.89;69.36;101857.88;5051959;28;20379;-57
2022/06/16 01:56:35;;;;;;;7.78;3.53;;;;;;;14.97;69.08;101858.22;5051999;28;20049;-46
2022/06/16 01:59:09;;;;;;;7.10;3.28;;;;;;;14.70;69.55;101859.09;5051850;28;20049;-48
2022/06/16 02:01:42;;;;;;;6.80;3.55;;;;;;;14.69;69.82;101861.88;5051624;28;20060;-50
2022/06/16 02:04:18;;;;;;;8.68;3.47;;;;;;;14.72;70.02;101864.28;5046933;28;20102;-47
2022/06/16 02:06:50;;;;;;;7.93;3.60;;;;;;;14.73;70.12;101863.34;5048043;28;20057;-52
2022/06/16 02:09:27;;;;;;;10.15;3.67;;;;;;;14.53;71.04;101860.22;5051484;28;20049;-49
2022/06/16 02:11:58;;;;;;;7.85;3.70;;;;;;;14.55;71.04;101852.16;5051580;28;20045;-58
2022/06/16 02:14:33;;;;;;;7.03;3.22;;;;;;;14.47;71.72;101850.00;5051852;28;20051;-48
2022/06/16 02:17:04;;;;;;;7.20;3.88;;;;;;;14.51;71.61;101848.03;5052107;28;20044;-48
2022/06/16 02:19:32;;;;;;;9.27;3.97;;;;;;;14.58;71.50;101844.00;5051916;28;20052;-48
2022/06/16 02:22:02;;;;;;;6.57;3.67;;;;;;;14.47;71.92;101842.06;5052168;28;20056;-47
2022/06/16 02:24:31;;;;;;;7.47;3.88;;;;;;;14.41;72.42;101849.56;5052055;28;20044;-57
2022/06/16 02:27:00;;;;;;;7.53;4.18;;;;;;;14.25;73.04;101850.56;5052032;28;20157;-47
2022/06/16 02:29:33;;;;;;;9.85;3.70;;;;;;;14.30;73.41;101851.13;5051814;28;20045;-49
2022/06/16 02:32:24;;;;;;;7.85;3.60;;;;;;;14.31;73.78;101860.75;5050012;28;20075;-50
2022/06/16 02:35:05;;;;;;;9.45;4.18;;;;;;;14.17;74.20;101866.09;5046857;28;20049;-56
2022/06/16 02:37:46;;;;;;;7.45;3.80;;;;;;;14.25;74.06;101868.22;5050535;28;20072;-47
2022/06/16 02:40:31;;;;;;;7.32;3.45;;;;;;;14.08;74.45;101874.59;5047927;28;20063;-56
2022/06/16 02:43:28;;;;;;;7.72;3.72;;;;;;;14.04;74.28;101871.31;5051285;28;20057;-58
2022/06/16 02:46:02;;;;;;;8.10;4.15;;;;;;;14.10;73.94;101875.38;5051749;28;20102;-57
2022/06/16 02:48:39;;;;;;;7.35;3.83;;;;;;;14.07;73.68;101872.91;5051800;28;20053;-50
2022/06/16 02:51:13;;;;;;;6.25;3.60;;;;;;;14.07;73.74;101879.06;5051745;28;20156;-50
2022/06/16 02:53:48;;;;;;;9.13;3.70;;;;;;;14.07;73.79;101879.06;5051856;28;20149;-57
2022/06/16 02:56:26;;;;;;;9.27;4.07;;;;;;;13.96;74.08;101887.66;5051723;28;20045;-57
2022/06/16 02:58:58;;;;;;;7.65;3.83;;;;;;;14.10;73.82;101896.53;5051756;28;20061;-56
2022/06/16 03:01:27;;;;;;;7.53;3.80;;;;;;;14.02;74.41;101897.00;5054541;28;20114;-57
2022/06/16 03:04:05;;;;;;;8.43;3.90;;;;;;;13.97;74.72;101892.00;5055832;28;20094;-50
2022/06/16 03:06:33;;;;;;;8.52;3.80;;;;;;;13.94;74.80;101902.78;5055460;28;20144;-47
2022/06/16 03:09:02;;;;;;;9.13;4.40;;;;;;;13.88;75.09;101910.22;5055455;28;20142;-47
2022/06/16 03:11:31;;;;;;;8.55;3.85;;;;;;;13.94;74.41;101901.94;5055511;28;20045;-48
2022/06/16 03:13:59;;;;;;;8.70;3.85;;;;;;;13.97;74.84;101901.72;5055811;28;20048;-52
2022/06/16 03:16:28;;;;;;;8.55;4.22;;;;;;;13.89;74.81;101898.72;5053824;28;20041;-57
2022/06/16 03:18:56;;;;;;;8.10;4.30;;;;;;;13.91;74.85;101908.25;5052085;28;20080;-57
2022/06/16 03:21:26;;;;;;;9.57;3.67;;;;;;;13.78;74.83;101912.59;5051044;28;20569;-50
2022/06/16 03:23:54;;;;;;;7.65;3.35;;;;;;;13.76;75.19;101911.88;5055363;28;20049;-56
2022/06/16 03:26:22;;;;;;;10.07;3.85;;;;;;;13.64;75.46;101909.00;5055244;28;20044;-57
2022/06/16 03:28:50;;;;;;;9.40;3.55;;;;;;;13.66;75.68;101920.34;5055294;28;20045;-48
2022/06/16 03:31:18;;;;;;;9.50;4.28;;;;;;;13.67;75.90;101935.28;5055011;28;20106;-57
2022/06/16 03:33:47;;;;;;;7.25;3.30;;;;;;;13.73;75.74;101935.81;5055190;28;20041;-56
2022/06/16 03:36:15;;;;;;;7.82;3.72;;;;;;;13.68;75.86;101931.66;5054766;28;20041;-51
2022/06/16 03:38:45;;;;;;;9.32;3.85;;;;;;;13.66;75.51;101936.22;5055085;28;20045;-50
2022/06/16 03:41:14;;;;;;;9.38;3.85;;;;;;;13.64;75.82;101937.25;5055221;28;20047;-52
2022/06/16 03:43:42;;;;;;;8.27;3.55;;;;;;;13.58;75.92;101933.19;5055267;28;20488;-57
2022/06/16 03:46:11;;;;;;;10.32;3.75;;;;;;;13.59;76.30;101923.44;5054869;28;20037;-57
2022/06/16 03:48:40;;;;;;;8.82;3.80;;;;;;;13.53;76.59;101928.16;5055114;28;20053;-50
2022/06/16 03:51:09;;;;;;;9.52;3.72;;;;;;;13.57;76.85;101936.75;5054913;28;20045;-57
2022/06/16 03:53:37;;;;;;;10.23;3.78;;;;;;;13.55;76.81;101940.44;5054686;28;20041;-58
2022/06/16 03:56:08;;;;;;;7.43;3.63;;;;;;;13.59;76.69;101937.50;5054590;28;20076;-47
2022/06/16 03:58:36;;;;;;;9.23;3.80;;;;;;;13.53;77.24;101940.53;5049802;28;20060;-55
2022/06/16 04:01:04;;;;;;;10.15;4.10;;;;;;;13.59;77.21;101944.59;5050354;28;20136;-58
2022/06/16 04:06:18;;;;;;;10.50;4.40;;;;;;;13.48;77.33;101958.47;5054498;28;20045;-49
2022/06/16 04:08:47;;;;;;;10.27;3.92;;;;;;;13.48;77.72;101953.16;5054402;28;20069;-55
2022/06/16 04:11:29;;;;;;;7.55;3.92;;;;;;;13.41;78.07;101963.25;5053761;28;20514;-57
2022/06/16 04:14:02;;;;;;;9.10;3.70;;;;;;;13.30;79.02;101970.94;5049043;28;20106;-56
2022/06/16 04:16:32;;;;;;;12.10;3.92;;;;;;;13.38;79.02;101962.59;5052260;28;20161;-58
2022/06/16 04:19:01;;;;;;;7.45;3.70;;;;;;;13.48;79.35;101963.75;5054425;28;20049;-46
2022/06/16 04:21:30;;;;;;;7.97;4.05;;;;;;;13.46;79.63;101968.28;5050638;28;20049;-49
2022/06/16 04:23:58;;;;;;;7.97;3.88;;;;;;;13.45;79.82;101967.41;5051230;28;20056;-47
2022/06/16 04:26:28;;;;;;;8.15;4.10;;;;;;;13.43;79.97;101960.50;5053457;28;20095;-55
2022/06/16 04:28:56;;;;;;;9.32;4.00;;;;;;;13.41;79.86;101959.78;5053465;28;20045;-56
2022/06/16 04:31:24;;;;;;;8.18;3.90;;;;;;;13.46;79.86;101961.19;5053450;28;20053;-56
2022/06/16 04:33:52;;;;;;;9.20;4.20;;;;;;;13.43;79.69;101965.81;5053465;28;20132;-56
2022/06/16 04:36:20;;;;;;;8.35;3.92;;;;;;;13.46;79.77;101970.94;5053703;28;20033;-45
2022/06/16 04:38:49;;;;;;;9.15;3.40;;;;;;;13.50;79.72;101967.16;5053766;28;20060;-56
2022/06/16 04:41:17;;;;;;;9.48;4.25;;;;;;;13.44;80.05;101970.16;5053650;28;20080;-57
2022/06/16 04:43:47;;;;;;;9.65;4.03;;;;;;;13.43;80.20;101968.44;5053781;28;20384;-58
2022/06/16 04:46:16;;;;;;;9.70;4.22;;;;;;;13.42;80.76;101974.69;5053445;28;20068;-56
2022/06/16 04:48:44;;;;;;;8.43;4.00;;;;;;;13.42;80.82;101987.91;5053999;28;20500;-55
2022/06/16 04:51:16;;;;;;;8.32;3.90;;;;;;;13.51;80.55;101979.41;5053824;28;20041;-57
2022/06/16 04:53:44;;;;;;;9.30;4.13;;;;;;;13.53;80.66;101990.75;5051528;28;20053;-57
2022/06/16 04:56:12;;;;;;;9.75;4.30;;;;;;;13.51;81.15;101990.84;5050358;28;20396;-58
2022/06/16 04:58:40;;;;;;;8.00;3.95;;;;;;;13.53;81.35;101998.69;5052421;28;20041;-51
2022/06/16 05:01:09;;;;;;;10.18;4.25;;;;;;;13.59;82.20;101993.00;5052589;28;20041;-57
2022/06/16 05:03:48;;;;;;;7.90;3.97;;;;;;;13.72;81.81;101997.59;5049662;28;20107;-58
2022/06/16 05:06:16;;;;;;;8.90;4.07;;;;;;;13.83;81.48;101998.63;5051625;28;20389;-58
2022/06/16 05:08:44;;;;;;;9.13;3.88;;;;;;;13.90;81.67;101985.03;5053497;28;20041;-50
2022/06/16 05:11:12;;;;;;;10.35;3.85;;;;;;;13.99;82.52;102005.66;5053155;28;20490;-56
2022/06/16 05:13:40;;;;;;;7.97;3.70;;;;;;;14.09;81.60;102001.47;5053246;28;20056;-49
2022/06/16 05:16:10;;;;;;;8.70;3.80;;;;;;;14.18;81.50;102008.84;5053267;28;20481;-49
2022/06/16 05:18:38;;;;;;;9.52;3.50;;;;;;;14.26;81.93;102016.31;5053144;28;20136;-57
2022/06/16 05:21:08;;;;;;;8.55;3.42;;;;;;;14.29;81.89;102013.47;5053399;28;20069;-47
2022/06/16 05:23:36;;;;;;;12.20;3.88;;;;;;;14.44;81.75;102016.94;5048736;28;20045;-48
2022/06/16 05:26:04;;;;;;;9.00;3.65;;;;;;;14.49;81.08;102025.47;5047758;28;20053;-58
2022/06/16 05:28:33;;;;;;;9.10;3.15;;;;;;;14.59;81.55;102027.50;5052799;28;20530;-48
2022/06/16 05:31:01;;;;;;;10.00;3.53;;;;;;;14.69;81.44;102020.72;5052584;28;20047;-58
2022/06/16 05:33:30;;;;;;;8.45;3.13;;;;;;;14.78;81.02;102032.50;5052365;28;20389;-46
2022/06/16 05:36:00;;;;;;;9.68;3.38;;;;;;;14.89;81.00;102030.03;5052390;28;20051;-47
2022/06/16 05:38:29;;;;;;;7.68;2.70;;;;;;;14.94;80.79;102038.50;5052321;28;20053;-47
2022/06/16 05:40:58;;;;;;;8.60;3.20;;;;;;;15.07;80.37;102035.94;5052759;28;20488;-47
2022/06/16 05:43:26;;;;;;;10.63;3.13;;;;;;;15.16;79.98;102047.72;5052410;28;20424;-48
2022/06/16 05:45:55;;;;;;;5.97;2.70;;;;;;;15.25;79.07;102057.72;5049289;28;20563;-51
2022/06/16 05:48:24;;;;;;;7.25;2.55;;;;;;;15.37;78.83;102048.94;5048814;28;20060;-47
2022/06/16 05:50:53;;;;;;;7.78;2.65;;;;;;;15.48;77.43;102050.03;5052003;28;20079;-50
2022/06/16 05:53:21;;;;;;;8.90;2.83;;;;;;;15.61;77.54;102052.72;5052275;28;20178;-57
2022/06/16 05:55:50;;;;;;;9.05;2.50;;;;;;;15.66;78.07;102051.44;5052730;28;20076;-57
2022/06/16 05:58:18;;;;;;;8.68;2.60;;;;;;;15.84;76.78;102056.47;5051222;28;20079;-46
2022/06/16 06:00:46;;;;;;;9.68;2.95;;;;;;;15.94;76.83;102054.91;5046747;28;20056;-56
2022/06/16 06:03:14;;;;;;;7.38;2.60;;;;;;;16.09;75.07;102058.31;5049242;28;20072;-52
2022/06/16 06:05:42;;;;;;;7.07;2.55;;;;;;;16.19;74.80;102063.81;5051653;28;20421;-58
2022/06/16 06:16:35;;;;;;;5.30;2.50;;;;;;;16.56;70.31;102072.69;5052393;28;20618;-57
2022/06/16 06:21:59;;;;;;;6.07;2.20;;;;;;;16.81;68.04;102072.72;5049131;28;20123;-57
2022/06/16 06:24:31;;;;;;;6.55;2.60;;;;;;;16.84;67.45;102075.19;5048822;28;20088;-58
2022/06/16 06:27:03;;;;;;;6.45;2.03;;;;;;;16.93;67.32;102066.56;5051850;28;20037;-58
2022/06/16 06:29:31;;;;;;;5.30;2.10;;;;;;;17.01;65.93;102064.19;5052149;28;20060;-58
2022/06/16 06:31:59;;;;;;;8.05;2.40;;;;;;;17.19;65.67;102064.66;5052178;28;20045;-58
2022/06/16 06:34:27;;;;;;;8.02;2.40;;;;;;;17.18;64.33;102068.28;5049157;28;20048;-48
2022/06/16 06:36:56;;;;;;;6.82;2.35;;;;;;;17.36;63.80;102071.38;5047986;28;20095;-58
2022/06/16 06:39:24;;;;;;;5.90;2.20;;;;;;;17.55;62.88;102067.34;5051804;28;20053;-55
2022/06/16 06:41:53;;;;;;;5.22;1.95;;;;;;;17.72;61.34;102071.34;5051806;28;20049;-57
2022/06/16 06:44:21;;;;;;;5.20;1.90;;;;;;;17.67;60.11;102061.09;5051844;28;20566;-56
2022/06/16 06:46:50;;;;;;;7.00;2.35;;;;;;;17.72;58.70;102061.59;5052174;28;20065;-57
2022/06/16 06:49:18;;;;;;;4.93;1.60;;;;;;;17.83;58.96;102065.22;5051368;28;20131;-58
2022/06/16 06:51:46;;;;;;;6.43;2.17;;;;;;;17.89;58.70;102075.41;5048396;28;20044;-49
2022/06/16 06:54:14;;;;;;;6.60;2.00;;;;;;;18.07;57.13;102075.81;5049554;28;20073;-57
2022/06/16 06:56:42;;;;;;;7.35;1.90;;;;;;;18.16;57.28;102074.25;5051723;28;20419;-49
2022/06/16 06:59:16;;;;;;;5.28;1.90;;;;;;;18.38;58.18;102087.56;5051923;28;20510;-57
2022/06/16 07:01:44;;;;;;;4.82;1.90;;;;;;;18.55;56.74;102082.72;5051683;28;20057;-50
2022/06/16 07:04:13;;;;;;;6.07;2.08;;;;;;;18.64;56.17;102084.66;5051851;28;20110;-57
2022/06/16 07:06:42;;;;;;;5.97;1.80;;;;;;;18.89;56.00;102085.38;5051757;28;20132;-57
2022/06/16 07:09:11;;;;;;;5.50;1.95;;;;;;;19.03;55.53;102093.09;5051682;28;20053;-57
2022/06/16 07:11:41;;;;;;;5.05;2.03;;;;;;;19.08;55.41;102087.38;5048758;28;20083;-57
2022/06/16 07:14:10;;;;;;;5.28;1.60;;;;;;;19.12;54.33;102091.50;5047440;28;20040;-56
2022/06/16 07:16:40;;;;;;;3.35;1.63;;;;;;;19.28;55.46;102091.09;5051206;28;20053;-48
2022/06/16 07:19:16;;;;;;;5.78;2.08;;;;;;;19.53;54.53;102095.22;5051533;28;20463;-56
2022/06/16 07:21:44;;;;;;;5.32;1.83;;;;;;;19.70;53.92;102091.13;5049057;28;20179;-58
2022/06/16 07:24:12;;;;;;;5.75;1.88;;;;;;;19.85;52.54;102093.50;5048423;28;21081;-57
2022/06/16 07:26:41;;;;;;;3.63;1.30;;;;;;;19.83;50.41;102092.78;5049865;28;20045;-57
2022/06/16 07:29:10;;;;;;;4.97;1.30;;;;;;;20.01;49.71;102096.53;5051179;28;20385;-48
2022/06/16 07:31:40;;;;;;;4.13;1.50;;;;;;;20.14;49.24;102091.00;5046647;28;20542;-51
2022/06/16 07:34:08;;;;;;;4.90;1.45;;;;;;;20.19;48.50;102095.94;5049984;28;20137;-48
2022/06/16 07:36:36;;;;;;;3.22;1.15;;;;;;;20.20;47.18;102100.31;5049388;28;20059;-47
2022/06/16 07:39:05;;;;;;;4.03;1.58;;;;;;;20.24;46.55;102099.91;5048120;28;20415;-49
2022/06/16 07:41:34;;;;;;;3.45;1.30;;;;;;;20.46;46.84;102100.69;5051276;28;20047;-58
2022/06/16 07:44:05;;;;;;;6.15;1.63;;;;;;;20.60;46.55;102110.16;5051654;28;20055;-59
2022/06/16 07:46:33;;;;;;;2.10;1.20;;;;;;;20.84;45.63;102117.03;5051366;28;20041;-58
2022/06/16 07:49:03;;;;;;;5.93;1.33;;;;;;;20.92;45.66;102114.53;5054878;28;20547;-59
2022/06/16 07:51:32;;;;;;;3.55;1.25;;;;;;;21.08;45.26;102117.50;5055354;28;20041;-58
2022/06/16 07:54:00;;;;;;;3.28;1.10;;;;;;;21.25;45.91;102126.66;5051620;28;20052;-58
2022/06/16 07:56:29;;;;;;;4.88;1.30;;;;;;;21.47;44.17;102118.53;5051817;28;20053;-57
2022/06/16 07:58:57;;;;;;;6.32;1.50;;;;;;;21.61;43.41;102120.81;5053712;28;20049;-50
2022/06/16 08:01:25;;;;;;;5.30;1.40;;;;;;;21.68;43.53;102115.72;5054767;28;20044;-59
2022/06/16 08:03:53;;;;;;;4.90;1.10;;;;;;;21.77;43.13;102126.44;5054814;28;20540;-58
2022/06/16 08:06:26;;;;;;;3.63;1.38;;;;;;;21.92;43.25;102132.19;5054489;28;20053;-56
2022/06/16 08:08:54;;;;;;;3.33;1.00;;;;;;;22.04;43.70;102124.81;5051297;28;20045;-49
2022/06/16 08:14:08;;;;;;;5.22;1.50;;;;;;;22.04;42.38;102132.84;5054620;28;20053;-57
2022/06/16 08:16:36;;;;;;;8.20;1.85;;;;;;;22.19;42.78;102130.56;5049985;28;20194;-54
2022/06/16 08:19:05;;;;;;;3.75;1.30;;;;;;;22.48;43.09;102144.88;5050809;28;20106;-51
2022/06/16 08:21:35;;;;;;;4.28;1.20;;;;;;;22.76;41.67;102140.38;5054366;28;20095;-58
2022/06/16 08:24:04;;;;;;;3.00;1.08;;;;;;;22.99;41.13;102146.19;5054161;28;20467;-48
2022/06/16 08:26:33;;;;;;;5.28;1.30;;;;;;;23.14;40.73;102141.19;5054191;28;20049;-57
2022/06/16 08:29:02;;;;;;;6.75;1.58;;;;;;;23.10;39.34;102143.28;5054122;28;20132;-57
2022/06/16 08:31:30;;;;;;;5.63;1.98;;;;;;;23.34;39.83;102141.91;5054058;28;20052;-46
2022/06/16 08:33:58;;;;;;;4.97;1.50;;;;;;;23.29;38.26;102147.69;5050586;28;20052;-58
2022/06/16 08:36:26;;;;;;;4.00;1.60;;;;;;;23.43;39.30;102146.31;5051136;28;20103;-58
2022/06/16 08:38:56;;;;;;;3.38;1.23;;;;;;;23.80;39.78;102145.31;5054072;28;20041;-57
2022/06/16 08:41:28;;;;;;;7.32;1.80;;;;;;;23.86;38.88;102148.34;5053876;28;20048;-56
2022/06/16 08:44:08;;;;;;;6.32;1.77;;;;;;;23.79;39.58;102143.63;5054080;28;20123;-47
2022/06/16 08:46:40;;;;;;;3.35;1.30;;;;;;;24.16;38.61;102140.84;5053873;28;20044;-49
2022/06/16 08:49:22;;;;;;;7.75;1.75;;;;;;;24.21;38.06;102127.81;5054128;28;20047;-49
2022/06/16 08:52:10;;;;;;;7.72;1.70;;;;;;;24.23;38.04;102125.81;5051413;28;20912;-50
2022/06/16 08:54:54;;;;;;;5.38;1.83;;;;;;;24.39;38.00;102125.88;5050544;28;20065;-51
2022/06/16 08:57:29;;;;;;;5.22;1.52;;;;;;;24.36;37.84;102138.81;5053615;28;20045;-50
2022/06/16 09:00:05;;;;;;;6.40;1.40;;;;;;;24.48;37.24;102145.59;5052112;28;20048;-49
2022/06/16 09:02:42;;;;;;;5.95;1.40;;;;;;;24.83;35.93;102142.88;5052188;28;20500;-47
2022/06/16 09:05:25;;;;;;;5.55;1.67;;;;;;;25.14;37.49;102160.16;5053237;28;20045;-58
2022/06/16 09:08:03;;;;;;;5.82;1.52;;;;;;;24.93;36.25;102155.19;5053427;28;20041;-56
2022/06/16 09:10:38;;;;;;;7.05;2.10;;;;;;;25.18;36.10;102157.13;5053163;28;20037;-56
2022/06/16 09:13:40;;;;;;;6.38;1.90;;;;;;;25.03;35.72;102162.28;5053240;28;20077;-57
2022/06/16 09:16:22;;;;;;;4.53;1.38;;;;;;;25.25;35.16;102168.88;5043265;28;20516;-47
2022/06/16 09:19:13;;;;;;;4.40;1.50;;;;;;;25.32;34.41;102159.16;5068597;28;20089;-59
2022/06/16 09:21:53;;;;;;;3.15;1.38;;;;;;;25.53;34.30;102150.63;5067628;28;20384;-49
2022/06/16 09:24:37;;;;;;;6.18;1.50;;;;;;;25.57;35.60;102151.97;5075419;28;20039;-57
2022/06/16 09:27:12;;;;;;;4.53;1.52;;;;;;;25.69;34.22;102144.41;5075424;28;20540;-57
2022/06/16 09:29:47;;;;;;;3.65;1.40;;;;;;;25.71;33.54;102138.84;5072166;28;20055;-58
2022/06/16 09:32:23;;;;;;;5.07;1.67;;;;;;;25.87;34.84;102146.91;5067500;28;20102;-58
2022/06/16 09:34:57;;;;;;;4.45;1.60;;;;;;;26.10;34.46;102136.28;5065143;28;20455;-46
2022/06/16 09:37:32;;;;;;;6.00;1.60;;;;;;;26.19;34.76;102144.34;5060169;28;20106;-49
2022/06/16 09:40:06;;;;;;;4.32;1.80;;;;;;;26.15;34.56;102146.53;5072842;28;20058;-49
2022/06/16 09:42:39;;;;;;;4.22;1.60;;;;;;;26.41;32.93;102150.84;5072230;28;20431;-51
2022/06/16 09:45:19;;;;;;;3.65;1.50;;;;;;;26.55;33.34;102162.81;5072754;28;20059;-50
2022/06/16 09:47:52;;;;;;;3.20;1.42;;;;;;;26.90;33.94;102166.03;5072888;28;20388;-50
2022/06/16 09:50:28;;;;;;;5.22;1.58;;;;;;;27.00;32.32;102174.75;5072571;28;20494;-48
2022/06/16 09:53:03;;;;;;;5.78;1.52;;;;;;;26.98;32.50;102171.38;5069709;28;20170;-52
2022/06/16 09:55:35;;;;;;;6.68;1.50;;;;;;;26.81;34.18;102181.44;5069939;28;20051;-57
2022/06/16 09:58:15;;;;;;;4.25;1.70;;;;;;;26.79;32.48;102178.06;5070263;28;20147;-57
2022/06/16 10:00:44;;;;;;;3.90;1.60;;;;;;;26.90;32.37;102187.63;5067052;28;20469;-58
2022/06/16 10:03:25;;;;;;;5.35;1.75;;;;;;;27.09;31.50;102187.19;5072105;28;20356;-56
2022/06/16 10:06:07;;;;;;;3.38;1.50;;;;;;;27.34;32.03;102187.03;5072431;28;20107;-57
2022/06/16 10:08:43;;;;;;;3.75;1.52;;;;;;;27.11;31.59;102176.22;5072322;28;20105;-56
2022/06/16 10:11:18;;;;;;;4.88;1.73;;;;;;;27.26;32.62;102185.22;5071763;28;20478;-50
2022/06/16 10:13:57;;;;;;;5.05;1.60;;;;;;;27.63;31.79;102191.72;5072388;28;20048;-55
2022/06/16 10:16:30;;;;;;;4.88;1.55;;;;;;;27.61;32.54;102188.38;5072579;28;20044;-56
2022/06/16 10:19:00;;;;;;;4.57;1.63;;;;;;;27.87;30.79;102187.16;5072299;28;20075;-57
2022/06/16 10:21:34;;;;;;;5.78;2.05;;;;;;;27.89;30.53;102197.78;5072312;28;20076;-51
2022/06/16 10:24:04;;;;;;;3.75;1.70;;;;;;;27.64;30.82;102195.28;5072169;28;20052;-57
2022/06/16 10:26:32;;;;;;;6.13;1.77;;;;;;;28.06;30.73;102188.53;5071952;28;20036;-56
2022/06/16 10:29:07;;;;;;;7.78;1.80;;;;;;;28.04;31.08;102184.34;5072273;28;20049;-46
2022/06/16 10:31:40;;;;;;;5.80;1.77;;;;;;;28.39;31.67;102184.66;5071982;28;20053;-56
2022/06/16 10:34:27;;;;;;;5.85;1.67;;;;;;;28.75;30.17;102187.44;5068978;28;20792;-55
2022/06/16 10:37:01;;;;;;;6.65;1.98;;;;;;;28.26;30.20;102185.28;5069110;28;20045;-56
2022/06/16 10:39:40;;;;;;;5.32;1.75;;;;;;;28.31;30.90;102193.69;5071896;28;20553;-47
2022/06/16 10:42:18;;;;;;;5.93;1.88;;;;;;;28.05;30.78;102184.16;5072052;28;20049;-49
2022/06/16 10:44:54;;;;;;;6.00;1.77;;;;;;;28.12;32.59;102185.09;5072060;28;20048;-48
2022/06/16 10:47:33;;;;;;;4.18;1.55;;;;;;;28.21;31.53;102195.81;5071028;28;20052;-50
2022/06/16 10:50:02;;;;;;;5.03;1.85;;;;;;;28.53;31.72;102196.50;5068882;28;20383;-50
2022/06/16 10:52:33;;;;;;;4.50;1.73;;;;;;;28.53;32.15;102200.03;5070778;28;20082;-50
2022/06/16 10:55:19;;;;;;;4.25;1.60;;;;;;;28.65;30.84;102195.03;5072073;28;20051;-50
2022/06/16 10:57:49;;;;;;;3.08;1.60;;;;;;;28.86;30.78;102190.69;5072048;28;20083;-48
2022/06/16 11:00:22;;;;;;;7.15;2.00;;;;;;;28.89;30.27;102193.00;5071985;28;20549;-51
2022/06/16 11:03:07;;;;;;;4.85;1.63;;;;;;;29.25;29.20;102176.78;5071929;28;20048;-59
2022/06/16 11:05:53;;;;;;;4.10;1.70;;;;;;;29.31;29.39;102169.75;5070684;28;20056;-61
2022/06/16 11:08:23;;;;;;;5.95;1.90;;;;;;;29.23;30.35;102169.88;5070472;28;20542;-52
2022/06/16 11:11:11;;;;;;;4.57;1.83;;;;;;;28.53;30.89;102178.38;5068506;28;20044;-51
2022/06/16 11:13:47;;;;;;;6.10;1.70;;;;;;;29.03;30.92;102175.91;5070607;28;20051;-50
2022/06/16 11:16:32;;;;;;;3.63;1.85;;;;;;;28.99;29.79;102172.75;5071663;28;20060;-49
2022/06/16 11:19:07;;;;;;;4.30;1.60;;;;;;;29.64;30.88;102177.38;5071606;28;20040;-56
2022/06/16 11:21:35;;;;;;;3.75;1.88;;;;;;;29.67;29.48;102179.69;5070488;28;20405;-49
2022/06/16 11:24:08;;;;;;;4.78;1.90;;;;;;;29.62;29.02;102184.88;5075422;28;20616;-54
2022/06/16 11:26:42;;;;;;;5.40;1.70;;;;;;;29.70;29.96;102186.59;5075296;28;20078;-46
2022/06/16 11:29:24;;;;;;;5.10;2.00;;;;;;;30.05;27.75;102184.81;5075419;28;20411;-53
2022/06/16 11:32:07;;;;;;;4.72;1.70;;;;;;;29.97;28.43;102183.09;5075711;28;20079;-45
2022/06/16 11:34:36;;;;;;;7.20;2.00;;;;;;;29.74;28.49;102182.47;5072024;28;20055;-55
2022/06/16 11:37:42;;;;;;;4.85;1.83;;;;;;;30.01;28.84;102189.78;5071997;28;20581;-47
2022/06/16 11:40:33;;;;;;;6.45;2.00;;;;;;;30.14;28.50;102185.50;5073723;28;20453;-60
2022/06/16 11:43:45;;;;;;;6.95;1.90;;;;;;;30.05;28.76;102192.97;5075305;28;20131;-58
2022/06/16 11:46:19;;;;;;;5.10;2.00;;;;;;;30.05;29.19;102192.97;5048749;28;20117;-59
2022/06/16 11:49:06;;;;;;;5.28;2.13;;;;;;;30.60;29.12;102192.28;5071646;28;20102;-49
2022/06/16 11:51:42;;;;;;;5.60;1.90;;;;;;;30.77;27.82;102187.31;5074545;28;20048;-61
2022/06/16 11:54:23;;;;;;;7.18;1.98;;;;;;;30.93;29.12;102170.66;5075109;28;20518;-56
2022/06/16 11:56:57;;;;;;;7.45;2.25;;;;;;;30.57;26.95;102176.38;5090451;28;20056;-57
2022/06/16 12:00:00;;;;;;;10.88;2.38;;;;;;;30.68;27.73;102170.38;5071776;28;20059;-49
2022/06/16 12:02:59;;;;;;;8.07;2.17;;;;;;;30.79;27.44;102167.06;5071488;28;20120;-57
2022/06/16 12:05:38;;;;;;;6.85;2.47;;;;;;;30.76;27.09;102174.78;5074364;28;20048;-57
2022/06/16 12:08:27;;;;;;;5.88;2.10;;;;;;;30.79;28.63;102180.66;5074301;28;20049;-47
2022/06/16 12:11:03;;;;;;;4.57;2.00;;;;;;;30.89;27.03;102184.88;5074199;28;20478;-49
2022/06/16 12:13:40;;;;;;;4.20;1.98;;;;;;;30.55;26.77;102183.88;5074090;28;20078;-55